Historique des mesures à Cassis (13260), France
Quotidien Résumé Avril 11, 2018 Unités:  Métrique    US   Métrique/US
« Précédent (Jour)
Suivant (Jour) »
Quotidien Hebdomadaire Mensuel Annuel Période au choix
  Maximum: Minimum: Moyenne:
Température: TemperatureC °C 10.1 °C 11.4 °C
Point de rosée: DewpointC °C 7.7 °C 8.2 °C
Humidité: Humidity % 72 % 77 %
Vitesse du vent: 0 km/h 0 km/h 10.1 km/h
Rafales: 0 km/h - -
Vent:- - ESE
Pression: PressurehPa hPa 995.5 hPa -
Précipitations: 61.2 mm    
Historical Graphs
 
 
Mesures pour : Avril 11, 2018
Heure Temperature Point de rosée Pression Vent Vitesse du vent Rafales Humidité Pluie (par heure) Conditions
TemperatureC °C DewpointC °C PressurehPa hPa Calm     Humidity % HourlyPrecipMM mm SoftwareType W/m2
01:12 12.7 °C 8.3 °C 1002.9 hPa ESE 6.4 km/h 23 km/h 75 % 0.0 mm open2300-1.11 W/m2
02:12 12.9 °C 8.6 °C 1002.3 hPa SE 12.7 km/h 17.4 km/h 75 % 0.0 mm open2300-1.11 W/m2
03:12 12.5 °C 8.0 °C 1001.6 hPa SSE 5.1 km/h 10.9 km/h 74 % 0.0 mm open2300-1.11 W/m2
04:11 12.4 °C 7.7 °C 1000.2 hPa ESE 8 km/h 12.2 km/h 73 % 0.0 mm open2300-1.11 W/m2
05:12 12.6 °C 7.7 °C 999.9 hPa SE 13.2 km/h 19.2 km/h 72 % 0.0 mm open2300-1.11 W/m2
06:12 12.6 °C 8.1 °C 999.5 hPa ESE 8.9 km/h 11.6 km/h 74 % 0.0 mm open2300-1.11 W/m2
07:12 11.9 °C 8.6 °C 998.9 hPa SE 6.9 km/h 12.2 km/h 80 % 1.0 mm open2300-1.11 W/m2
08:12 11.9 °C 8.8 °C 998.5 hPa East 7.6 km/h 9.3 km/h 81 % 0.0 mm open2300-1.11 W/m2
09:11 12.1 °C 8.6 °C 997.5 hPa East 9.8 km/h 12.2 km/h 79 % 0.0 mm open2300-1.11 W/m2
10:11 13.0 °C 9.2 °C 997.2 hPa ESE 7.6 km/h 31.9 km/h 78 % 0.0 mm open2300-1.11 W/m2
11:12 12.4 °C 9.2 °C 997.5 hPa ENE 14 km/h 15.6 km/h 81 % 0.0 mm open2300-1.11 W/m2
12:11 12.9 °C 9.1 °C 996.8 hPa SE 30.1 km/h 30.1 km/h 78 % 0.0 mm open2300-1.11 W/m2
13:11 12.8 °C 9.4 °C 996.8 hPa SE 17.4 km/h 23 km/h 80 % 0.0 mm open2300-1.11 W/m2
14:11 12.9 °C 8.9 °C 996.2 hPa SE 26.2 km/h 26.2 km/h 77 % 0.0 mm open2300-1.11 W/m2
15:11 12.3 °C 9.2 °C 995.8 hPa SE 16.9 km/h 29.5 km/h 81 % 1.0 mm open2300-1.11 W/m2
16:10 11.9 °C 9.1 °C 995.8 hPa SE 10.3 km/h 10.3 km/h 83 % 2.0 mm open2300-1.11 W/m2
16:11 11.9 °C 9.1 °C 995.8 hPa NNE 5.6 km/h 10.3 km/h 83 % 2.0 mm open2300-1.11 W/m2
17:10 10.8 °C 8.2 °C 996.5 hPa NE 18.7 km/h 20.9 km/h 84 % 9.9 mm open2300-1.11 W/m2
18:10 10.1 °C 7.7 °C 995.8 hPa WNW 5.6 km/h 6.4 km/h 85 % 19.0 mm open2300-1.11 W/m2
19:10 10.1 °C 7.7 °C 995.8 hPa Calm   23.8 km/h 85 % 9.4 mm open2300-1.11 W/m2
20:10 10.5 °C 8.2 °C 995.5 hPa ESE 5.6 km/h 7.6 km/h 86 % 7.4 mm open2300-1.11 W/m2
21:10 10.6 °C 8.5 °C 995.8 hPa East 7.6 km/h 9.3 km/h 87 % 3.6 mm open2300-1.11 W/m2
22:10 11.0 °C 8.9 °C 995.5 hPa SE 4.2 km/h 5.1 km/h 87 % 3.0 mm open2300-1.11 W/m2
23:10 10.6 °C 8.5 °C 996.2 hPa ESE 5.6 km/h 6.4 km/h 87 % 3.0 mm open2300-1.11 W/m2
Observations météo à CASSIS
WU-History script by Weather Underground - 1 mb